createdAt,value
2018-11-07T00:02:18.026Z,97484.30
2018-11-07T00:04:45.375Z,97477.47
2018-11-07T00:07:11.901Z,97474.26
2018-11-07T00:09:38.366Z,97470.27
2018-11-07T00:12:04.871Z,97478.43
2018-11-07T00:14:31.486Z,97477.81
2018-11-07T00:16:58.076Z,97480.38
2018-11-07T00:19:24.576Z,97480.52
2018-11-07T00:21:51.246Z,97478.69
2018-11-07T00:24:17.704Z,97475.09
2018-11-07T00:26:44.243Z,97479.97
2018-11-07T00:29:10.773Z,97483.80
2018-11-07T00:31:37.233Z,97483.86
2018-11-07T00:34:03.744Z,97473.75
2018-11-07T00:36:30.257Z,97477.48
2018-11-07T00:38:56.990Z,97477.52
2018-11-07T00:41:23.540Z,97477.60
2018-11-07T00:43:50.015Z,97473.88
2018-11-07T00:46:16.508Z,97475.84
2018-11-07T00:48:43.277Z,97470.92
2018-11-07T00:51:09.743Z,97472.25
2018-11-07T00:53:36.693Z,97459.58
2018-11-07T00:56:03.222Z,97464.36
2018-11-07T00:58:29.742Z,97463.66
2018-11-07T01:00:56.222Z,97459.30
2018-11-07T01:03:22.671Z,97459.89
2018-11-07T01:05:49.144Z,97455.73
2018-11-07T01:08:15.657Z,97455.77
2018-11-07T01:10:42.596Z,97449.14
2018-11-07T01:13:09.860Z,97455.90
2018-11-07T01:15:36.370Z,97452.44
2018-11-07T01:18:03.006Z,97457.19
2018-11-07T01:20:29.468Z,97451.18
2018-11-07T01:22:55.905Z,97456.16
2018-11-07T01:25:22.390Z,97454.19
2018-11-07T01:27:49.461Z,97450.41
2018-11-07T01:30:15.993Z,97450.83
2018-11-07T01:32:44.226Z,97455.00
2018-11-07T01:35:11.886Z,97445.66
2018-11-07T01:37:38.812Z,97447.86
2018-11-07T01:40:06.881Z,97448.45
2018-11-07T01:42:35.015Z,97449.55
2018-11-07T01:45:03.744Z,97452.03
2018-11-07T01:47:31.616Z,97447.86
2018-11-07T01:49:59.610Z,97445.02
2018-11-07T01:52:27.336Z,97446.34
2018-11-07T01:54:54.444Z,97445.61
2018-11-07T01:57:22.940Z,97441.04
2018-11-07T01:59:50.702Z,97437.51
2018-11-07T02:02:19.228Z,97435.66
2018-11-07T02:04:46.570Z,97437.98
2018-11-07T02:07:15.170Z,97443.27
2018-11-07T02:09:42.101Z,97442.23
2018-11-07T02:12:12.402Z,97434.95
2018-11-07T02:14:40.143Z,97440.41
2018-11-07T02:17:06.775Z,97437.41
2018-11-07T02:19:33.580Z,97433.99
2018-11-07T02:22:01.438Z,97429.84
2018-11-07T02:24:29.005Z,97426.20
2018-11-07T02:26:57.571Z,97428.85
2018-11-07T02:29:25.181Z,97435.64
2018-11-07T02:31:52.686Z,97439.64
2018-11-07T02:34:19.860Z,97448.83
2018-11-07T02:36:48.924Z,97445.05
2018-11-07T02:39:17.567Z,97450.28
2018-11-07T02:41:45.091Z,97447.72
2018-11-07T02:44:12.278Z,97451.47
2018-11-07T02:46:39.655Z,97445.99
2018-11-07T02:49:07.482Z,97453.98
2018-11-07T02:51:34.113Z,97448.30
2018-11-07T02:54:01.433Z,97446.95
2018-11-07T02:56:28.950Z,97449.45
2018-11-07T02:59:00.070Z,97453.55
2018-11-07T03:01:28.373Z,97452.12
2018-11-07T03:03:56.648Z,97453.44
2018-11-07T03:06:24.672Z,97448.89
2018-11-07T03:08:51.980Z,97454.33
2018-11-07T03:11:19.220Z,97450.45
2018-11-07T03:13:47.525Z,97454.47
2018-11-07T03:16:15.711Z,97458.63
2018-11-07T03:18:43.053Z,97455.23
2018-11-07T03:21:12.026Z,97451.53
2018-11-07T03:23:39.991Z,97452.72
2018-11-07T03:28:39.689Z,97446.18
2018-11-07T03:31:07.709Z,97446.27
2018-11-07T03:33:35.973Z,97452.39
2018-11-07T03:36:03.454Z,97451.06
2018-11-07T03:38:30.931Z,97450.39
2018-11-07T03:40:59.496Z,97450.39
2018-11-07T03:43:27.388Z,97453.39
2018-11-07T03:45:56.669Z,97450.97
2018-11-07T03:48:25.357Z,97445.73
2018-11-07T03:50:55.874Z,97447.23
2018-11-07T03:53:23.603Z,97448.60
2018-11-07T03:55:50.722Z,97460.45
2018-11-07T03:58:18.662Z,97467.42
2018-11-07T04:00:45.223Z,97463.23
2018-11-07T04:03:15.689Z,97454.91
2018-11-07T04:05:42.681Z,97455.87
2018-11-07T04:08:10.931Z,97450.94
2018-11-07T04:10:38.888Z,97453.88
2018-11-07T04:13:07.691Z,97459.02
2018-11-07T04:15:35.934Z,97456.77
2018-11-07T04:18:04.123Z,97456.78
2018-11-07T04:20:31.904Z,97465.22
2018-11-07T04:22:58.396Z,97467.37
2018-11-07T04:25:24.881Z,97464.05
2018-11-07T04:27:51.404Z,97461.56
2018-11-07T04:30:17.853Z,97459.83
2018-11-07T04:32:44.944Z,97467.30
2018-11-07T04:35:11.924Z,97466.12
2018-11-07T04:37:38.598Z,97462.92
2018-11-07T04:40:05.667Z,97464.86
2018-11-07T04:42:32.793Z,97456.00
2018-11-07T04:44:59.266Z,97457.42
2018-11-07T04:47:25.729Z,97458.04
2018-11-07T04:49:52.246Z,97461.11
2018-11-07T04:52:18.708Z,97465.69
2018-11-07T04:54:45.150Z,97464.23
2018-11-07T04:57:12.088Z,97465.30
2018-11-07T04:59:38.627Z,97462.41
2018-11-07T05:02:05.079Z,97466.26
2018-11-07T05:04:31.546Z,97466.72
2018-11-07T05:06:58.018Z,97477.63
2018-11-07T05:09:24.475Z,97483.58
2018-11-07T05:11:51.120Z,97478.37
2018-11-07T05:14:17.593Z,97481.70
2018-11-07T05:16:44.070Z,97488.09
2018-11-07T05:19:10.532Z,97488.16
2018-11-07T05:21:37.024Z,97493.11
2018-11-07T05:24:03.712Z,97492.73
2018-11-07T05:26:30.195Z,97491.86
2018-11-07T05:28:56.810Z,97490.98
2018-11-07T05:31:23.351Z,97490.55
2018-11-07T05:33:49.866Z,97494.02
2018-11-07T05:36:16.322Z,97489.70
2018-11-07T05:38:42.791Z,97500.78
2018-11-07T05:41:09.343Z,97507.86
2018-11-07T05:43:35.931Z,97506.10
2018-11-07T05:46:02.433Z,97500.28
2018-11-07T05:48:28.934Z,97507.17
2018-11-07T05:50:56.552Z,97510.88
2018-11-07T05:53:23.046Z,97511.84
2018-11-07T05:55:49.571Z,97513.45
2018-11-07T05:58:16.228Z,97509.33
2018-11-07T06:00:42.822Z,97507.72
2018-11-07T06:03:09.297Z,97512.00
2018-11-07T06:05:35.848Z,97512.05
2018-11-07T06:08:02.516Z,97512.48
2018-11-07T06:10:29.011Z,97518.36
2018-11-07T06:12:55.446Z,97515.09
2018-11-07T06:15:21.937Z,97520.77
2018-11-07T06:17:48.422Z,97520.63
2018-11-07T06:20:15.840Z,97513.19
2018-11-07T06:22:43.229Z,97522.47
2018-11-07T06:25:09.770Z,97524.16
2018-11-07T06:27:36.243Z,97521.78
2018-11-07T06:30:02.758Z,97518.63
2018-11-07T06:32:29.288Z,97526.08
2018-11-07T06:34:55.774Z,97520.23
2018-11-07T06:37:22.306Z,97530.25
2018-11-07T06:39:48.880Z,97529.86
2018-11-07T06:42:15.363Z,97523.56
2018-11-07T06:44:41.984Z,97529.95
2018-11-07T06:47:08.499Z,97531.31
2018-11-07T06:49:34.980Z,97529.95
2018-11-07T06:52:01.440Z,97531.73
2018-11-07T06:54:27.982Z,97534.62
2018-11-07T06:56:54.469Z,97529.38
2018-11-07T06:59:20.942Z,97525.88
2018-11-07T07:01:47.448Z,97530.91
2018-11-07T07:04:13.934Z,97528.94
2018-11-07T07:06:40.364Z,97523.26
2018-11-07T07:09:06.824Z,97522.90
2018-11-07T07:11:33.335Z,97521.36
2018-11-07T07:14:00.156Z,97524.47
2018-11-07T07:16:26.729Z,97523.41
2018-11-07T07:18:54.234Z,97529.61
2018-11-07T07:21:20.717Z,97532.48
2018-11-07T07:26:20.232Z,97533.64
2018-11-07T07:28:46.791Z,97536.39
2018-11-07T07:31:14.378Z,97539.64
2018-11-07T07:33:40.968Z,97536.15
2018-11-07T07:36:07.561Z,97537.65
2018-11-07T07:38:34.069Z,97538.34
2018-11-07T07:41:00.706Z,97542.95
2018-11-07T07:43:27.209Z,97541.19
2018-11-07T07:45:53.698Z,97532.92
2018-11-07T07:48:20.425Z,97539.93
2018-11-07T07:50:46.887Z,97544.81
2018-11-07T07:53:14.480Z,97543.45
2018-11-07T07:55:40.988Z,97547.07
2018-11-07T07:58:07.451Z,97543.34
2018-11-07T08:00:33.947Z,97552.76
2018-11-07T08:03:00.419Z,97553.91
2018-11-07T08:05:27.107Z,97552.91
2018-11-07T08:07:53.617Z,97554.83
2018-11-07T08:10:20.100Z,97552.70
2018-11-07T08:12:46.594Z,97562.00
2018-11-07T08:15:13.309Z,97561.48
2018-11-07T08:17:40.200Z,97559.61
2018-11-07T08:20:06.761Z,97559.53
2018-11-07T08:22:33.277Z,97558.28
2018-11-07T08:24:59.776Z,97554.61
2018-11-07T08:27:26.384Z,97554.83
2018-11-07T08:29:53.556Z,97552.09
2018-11-07T08:32:20.050Z,97558.46
2018-11-07T08:34:46.736Z,97564.20
2018-11-07T08:37:13.187Z,97566.16
2018-11-07T08:39:39.686Z,97569.84
2018-11-07T08:42:06.303Z,97568.43
2018-11-07T08:44:34.805Z,97562.45
2018-11-07T08:47:01.338Z,97570.94
2018-11-07T08:49:28.385Z,97557.80
2018-11-07T08:51:54.871Z,97558.60
2018-11-07T08:54:21.442Z,97569.16
2018-11-07T08:56:47.954Z,97554.30
2018-11-07T08:59:15.316Z,97553.67
2018-11-07T09:01:41.869Z,97552.76
2018-11-07T09:04:08.364Z,97555.42
2018-11-07T09:06:34.944Z,97554.13
2018-11-07T09:09:01.416Z,97560.24
2018-11-07T09:11:27.995Z,97564.45
2018-11-07T09:13:54.482Z,97567.03
2018-11-07T09:16:21.019Z,97570.45
2018-11-07T09:18:47.472Z,97577.95
2018-11-07T09:21:13.963Z,97572.52
2018-11-07T09:23:40.426Z,97573.86
2018-11-07T09:26:07.064Z,97567.77
2018-11-07T09:28:33.660Z,97563.78
2018-11-07T09:31:00.173Z,97571.88
2018-11-07T09:33:26.702Z,97564.06
2018-11-07T09:35:53.181Z,97567.87
2018-11-07T09:38:19.736Z,97564.88
2018-11-07T09:40:46.397Z,97556.99
2018-11-07T09:43:12.870Z,97564.56
2018-11-07T09:45:39.599Z,97571.34
2018-11-07T09:48:06.069Z,97562.47
2018-11-07T09:50:33.682Z,97560.69
2018-11-07T09:53:00.200Z,97560.33
2018-11-07T09:55:27.802Z,97551.77
2018-11-07T09:57:54.327Z,97549.63
2018-11-07T10:00:20.857Z,97541.70
2018-11-07T10:02:47.338Z,97536.55
2018-11-07T10:05:14.215Z,97529.68
2018-11-07T10:07:41.258Z,97537.50
2018-11-07T10:10:07.956Z,97539.31
2018-11-07T10:12:34.632Z,97537.91
2018-11-07T10:15:01.321Z,97539.31
2018-11-07T10:17:27.932Z,97532.66
2018-11-07T10:19:54.418Z,97528.13
2018-11-07T10:22:20.884Z,97519.66
2018-11-07T10:24:47.362Z,97521.55
2018-11-07T10:27:14.855Z,97520.31
2018-11-07T10:29:41.699Z,97518.80
2018-11-07T10:32:08.199Z,97518.95
2018-11-07T10:34:34.733Z,97524.98
2018-11-07T10:37:01.506Z,97522.84
2018-11-07T10:39:28.003Z,97523.76
2018-11-07T10:41:54.572Z,97516.95
2018-11-07T10:44:21.121Z,97515.51
2018-11-07T10:46:47.840Z,97515.77
2018-11-07T10:49:14.324Z,97513.95
2018-11-07T10:51:41.203Z,97508.55
2018-11-07T10:54:07.886Z,97502.36
2018-11-07T10:56:34.424Z,97508.48
2018-11-07T10:59:00.941Z,97505.83
2018-11-07T11:01:27.490Z,97505.09
2018-11-07T11:03:54.182Z,97508.68
2018-11-07T11:06:20.787Z,97505.70
2018-11-07T11:08:47.442Z,97502.16
2018-11-07T11:11:14.033Z,97494.12
2018-11-07T11:13:40.751Z,97498.80
2018-11-07T11:16:08.340Z,97502.03
2018-11-07T11:18:35.056Z,97500.32
2018-11-07T11:21:01.628Z,97491.55
2018-11-07T11:23:28.222Z,97492.76
2018-11-07T11:25:57.606Z,97498.85
2018-11-07T11:28:24.220Z,97494.95
2018-11-07T11:30:50.715Z,97489.06
2018-11-07T11:33:17.297Z,97494.59
2018-11-07T11:35:43.802Z,97491.02
2018-11-07T11:38:10.281Z,97493.97
2018-11-07T11:40:36.803Z,97489.98
2018-11-07T11:43:03.533Z,97481.38
2018-11-07T11:45:30.023Z,97489.34
2018-11-07T11:47:56.529Z,97493.13
2018-11-07T11:50:23.095Z,97487.98
2018-11-07T11:52:49.665Z,97483.49
2018-11-07T11:55:17.191Z,97482.99
2018-11-07T11:57:43.643Z,97486.53
2018-11-07T12:00:10.476Z,97482.00
2018-11-07T12:02:37.224Z,97479.06
2018-11-07T12:05:03.757Z,97475.55
2018-11-07T12:07:30.251Z,97475.45
2018-11-07T12:09:56.776Z,97477.27
2018-11-07T12:12:23.294Z,97476.53
2018-11-07T12:14:49.755Z,97472.29
2018-11-07T12:17:17.437Z,97474.33
2018-11-07T12:19:43.910Z,97471.52
2018-11-07T12:22:10.421Z,97467.45
2018-11-07T12:24:36.938Z,97475.28
2018-11-07T12:27:03.505Z,97474.68
2018-11-07T12:29:30.148Z,97468.69
2018-11-07T12:31:56.674Z,97469.97
2018-11-07T12:34:23.232Z,97473.14
2018-11-07T12:36:50.255Z,97467.33
2018-11-07T12:39:19.123Z,97470.89
2018-11-07T12:41:45.670Z,97472.38
2018-11-07T12:44:12.147Z,97475.84
2018-11-07T12:46:39.802Z,97474.78
2018-11-07T12:49:06.436Z,97480.11
2018-11-07T12:51:33.148Z,97479.86
2018-11-07T12:53:59.656Z,97471.41
2018-11-07T12:56:26.205Z,97474.98
2018-11-07T12:58:52.756Z,97478.05
2018-11-07T13:01:19.251Z,97472.37
2018-11-07T13:03:45.731Z,97471.70
2018-11-07T13:06:12.323Z,97465.49
2018-11-07T13:08:38.899Z,97469.06
2018-11-07T13:11:05.351Z,97467.56
2018-11-07T13:13:31.810Z,97466.30
2018-11-07T13:15:58.784Z,97469.83
2018-11-07T13:18:25.457Z,97465.20
2018-11-07T13:20:51.993Z,97467.64
2018-11-07T13:23:18.529Z,97475.45
2018-11-07T13:25:45.103Z,97472.63
2018-11-07T13:28:12.002Z,97474.79
2018-11-07T13:30:38.639Z,97476.29
2018-11-07T13:33:05.360Z,97471.41
2018-11-07T13:35:32.329Z,97480.94
2018-11-07T13:37:59.052Z,97478.02
2018-11-07T13:40:25.509Z,97479.84
2018-11-07T13:42:51.969Z,97476.28
2018-11-07T13:45:19.204Z,97477.63
2018-11-07T13:47:45.841Z,97478.00
2018-11-07T13:50:12.284Z,97483.42
2018-11-07T13:52:38.851Z,97475.00
2018-11-07T13:55:05.533Z,97485.66
2018-11-07T14:00:03.976Z,97482.56
2018-11-07T14:02:30.553Z,97475.33
2018-11-07T14:04:57.015Z,97478.80
2018-11-07T14:07:25.317Z,97475.88
2018-11-07T14:09:52.518Z,97472.14
2018-11-07T14:12:19.193Z,97481.96
2018-11-07T14:14:45.712Z,97484.38
2018-11-07T14:17:12.348Z,97490.39
2018-11-07T14:19:38.855Z,97486.29
2018-11-07T14:22:06.503Z,97485.59
2018-11-07T14:24:32.979Z,97485.62
2018-11-07T14:26:59.548Z,97484.63
2018-11-07T14:29:26.092Z,97480.92
2018-11-07T14:31:52.718Z,97481.72
2018-11-07T14:34:19.222Z,97487.42
2018-11-07T14:36:45.956Z,97483.77
2018-11-07T14:39:13.176Z,97486.47
2018-11-07T14:41:40.624Z,97488.20
2018-11-07T14:44:07.149Z,97491.32
2018-11-07T14:46:33.655Z,97489.16
2018-11-07T14:49:00.403Z,97487.35
2018-11-07T14:51:26.869Z,97493.06
2018-11-07T14:53:53.337Z,97484.48
2018-11-07T14:56:19.978Z,97484.21
2018-11-07T14:58:46.561Z,97483.08
2018-11-07T15:01:13.176Z,97487.50
2018-11-07T15:03:39.657Z,97484.31
2018-11-07T15:06:06.283Z,97478.87
2018-11-07T15:08:33.026Z,97484.36
2018-11-07T15:10:59.809Z,97490.15
2018-11-07T15:13:26.356Z,97485.16
2018-11-07T15:15:52.824Z,97484.06
2018-11-07T15:18:19.981Z,97478.72
2018-11-07T15:20:46.568Z,97485.36
2018-11-07T15:23:13.112Z,97483.38
2018-11-07T15:25:39.669Z,97485.12
2018-11-07T15:28:07.944Z,97483.69
2018-11-07T15:30:34.438Z,97486.61
2018-11-07T15:33:00.913Z,97486.91
2018-11-07T15:35:27.396Z,97495.06
2018-11-07T15:37:53.864Z,97491.25
2018-11-07T15:40:20.361Z,97493.34
2018-11-07T15:42:46.872Z,97490.11
2018-11-07T15:45:13.355Z,97496.20
2018-11-07T15:47:39.823Z,97497.21
2018-11-07T15:50:06.417Z,97494.11
2018-11-07T15:52:33.009Z,97496.56
2018-11-07T15:54:59.512Z,97497.81
2018-11-07T15:57:26.112Z,97501.48
2018-11-07T15:59:52.710Z,97503.56
2018-11-07T16:02:19.743Z,97499.98
2018-11-07T16:04:46.267Z,97508.97
2018-11-07T16:07:12.764Z,97513.83
2018-11-07T16:09:39.274Z,97507.04
2018-11-07T16:12:05.781Z,97506.99
2018-11-07T16:14:32.394Z,97505.72
2018-11-07T16:16:59.120Z,97504.29
2018-11-07T16:19:26.063Z,97508.09
2018-11-07T16:21:52.610Z,97506.92
2018-11-07T16:24:19.050Z,97510.33
2018-11-07T16:26:45.680Z,97509.27
2018-11-07T16:29:12.154Z,97513.73
2018-11-07T16:31:38.748Z,97517.71
2018-11-07T16:34:05.421Z,97519.41
2018-11-07T16:36:31.974Z,97519.89
2018-11-07T16:39:01.513Z,97517.59
2018-11-07T16:41:28.319Z,97520.94
2018-11-07T16:43:56.075Z,97528.45
2018-11-07T16:46:22.657Z,97533.43
2018-11-07T16:48:50.384Z,97529.94
2018-11-07T16:51:17.008Z,97538.17
2018-11-07T16:53:43.556Z,97538.30
2018-11-07T16:56:10.009Z,97542.84
2018-11-07T16:58:36.495Z,97544.64
2018-11-07T17:01:03.027Z,97551.34
2018-11-07T17:03:29.566Z,97553.44
2018-11-07T17:05:56.336Z,97550.19
2018-11-07T17:08:22.809Z,97546.70
2018-11-07T17:10:49.339Z,97549.06
2018-11-07T17:13:15.814Z,97546.22
2018-11-07T17:15:42.295Z,97549.22
2018-11-07T17:18:08.905Z,97548.61
2018-11-07T17:20:35.542Z,97549.75
2018-11-07T17:23:02.184Z,97549.65
2018-11-07T17:25:28.682Z,97552.28
2018-11-07T17:27:56.370Z,97557.59
2018-11-07T17:30:22.831Z,97560.86
2018-11-07T17:32:49.332Z,97571.45
2018-11-07T17:35:15.874Z,97573.02
2018-11-07T17:37:42.324Z,97573.06
2018-11-07T17:40:08.792Z,97575.16
2018-11-07T17:42:35.412Z,97578.53
2018-11-07T17:45:01.897Z,97568.55
2018-11-07T17:47:29.517Z,97572.09
2018-11-07T17:49:56.063Z,97572.02
2018-11-07T17:52:22.589Z,97574.72
2018-11-07T17:54:49.108Z,97571.91
2018-11-07T17:57:15.646Z,97576.45
2018-11-07T17:59:42.318Z,97579.07
2018-11-07T18:02:08.797Z,97579.86
2018-11-07T18:04:36.283Z,97581.59
2018-11-07T18:07:02.717Z,97568.05
2018-11-07T18:09:32.380Z,97571.70
2018-11-07T18:11:59.012Z,97566.52
2018-11-07T18:14:25.495Z,97557.44
2018-11-07T18:16:52.069Z,97551.92
2018-11-07T18:19:18.593Z,97563.91
2018-11-07T18:21:45.102Z,97558.78
2018-11-07T18:24:12.057Z,97564.98
2018-11-07T18:26:38.604Z,97567.33
2018-11-07T18:29:05.069Z,97567.50
2018-11-07T18:31:31.612Z,97557.20
2018-11-07T18:33:58.096Z,97558.01
2018-11-07T18:36:24.555Z,97558.90
2018-11-07T18:38:51.044Z,97557.78
2018-11-07T18:41:17.613Z,97560.52
2018-11-07T18:43:44.117Z,97562.55
2018-11-07T18:46:10.661Z,97561.80
2018-11-07T18:48:37.288Z,97567.83
2018-11-07T18:51:03.767Z,97568.64
2018-11-07T18:53:31.079Z,97574.70
2018-11-07T18:55:57.561Z,97573.38
2018-11-07T18:58:24.156Z,97565.02
2018-11-07T19:00:50.845Z,97576.29
2018-11-07T19:03:17.459Z,97570.28
2018-11-07T19:05:43.933Z,97568.67
2018-11-07T19:08:10.566Z,97570.83
2018-11-07T19:10:37.365Z,97570.44
2018-11-07T19:13:03.999Z,97573.98
2018-11-07T19:15:31.286Z,97571.03
2018-11-07T19:17:57.879Z,97575.28
2018-11-07T19:20:27.471Z,97579.76
2018-11-07T19:22:54.203Z,97578.92
2018-11-07T19:25:20.703Z,97578.23
2018-11-07T19:27:47.233Z,97585.17
2018-11-07T19:30:14.745Z,97583.24
2018-11-07T19:32:41.330Z,97592.31
2018-11-07T19:35:07.994Z,97584.87
2018-11-07T19:37:34.513Z,97588.76
2018-11-07T19:40:01.487Z,97588.72
2018-11-07T19:42:28.112Z,97595.27
2018-11-07T19:44:54.652Z,97599.05
2018-11-07T19:47:21.134Z,97599.11
2018-11-07T19:49:47.709Z,97593.43
2018-11-07T19:52:14.202Z,97588.95
2018-11-07T19:54:40.659Z,97592.80
2018-11-07T19:57:07.129Z,97594.97
2018-11-07T19:59:33.636Z,97596.30
2018-11-07T20:02:00.116Z,97607.06
2018-11-07T20:04:26.695Z,97602.27
2018-11-07T20:06:53.384Z,97600.45
2018-11-07T20:09:19.848Z,97604.60
2018-11-07T20:11:46.310Z,97595.84
2018-11-07T20:14:12.825Z,97601.38
2018-11-07T20:16:39.353Z,97600.91
2018-11-07T20:19:06.627Z,97599.02
2018-11-07T20:21:33.168Z,97602.11
2018-11-07T20:23:59.619Z,97602.03
2018-11-07T20:26:26.125Z,97604.55
2018-11-07T20:28:52.707Z,97607.23
2018-11-07T20:31:19.341Z,97611.47
2018-11-07T20:33:45.853Z,97611.27
2018-11-07T20:36:12.494Z,97605.81
2018-11-07T20:38:39.067Z,97606.20
2018-11-07T20:41:08.479Z,97610.60
2018-11-07T20:43:35.138Z,97608.94
2018-11-07T20:46:02.132Z,97612.25
2018-11-07T20:48:28.733Z,97610.86
2018-11-07T20:50:56.540Z,97612.81
2018-11-07T20:53:23.645Z,97614.26
2018-11-07T20:55:50.660Z,97612.08
2018-11-07T20:58:17.449Z,97605.41
2018-11-07T21:00:43.995Z,97608.99
2018-11-07T21:03:10.648Z,97607.48
2018-11-07T21:05:37.616Z,97607.37
2018-11-07T21:08:04.969Z,97601.66
2018-11-07T21:10:32.526Z,97613.32
2018-11-07T21:12:59.447Z,97607.37
2018-11-07T21:15:25.991Z,97612.67
2018-11-07T21:17:52.646Z,97612.02
2018-11-07T21:20:19.246Z,97610.89
2018-11-07T21:22:45.797Z,97616.98
2018-11-07T21:25:12.617Z,97619.30
2018-11-07T21:27:39.241Z,97610.83
2018-11-07T21:30:06.044Z,97605.95
2018-11-07T21:32:32.865Z,97608.89
2018-11-07T21:34:59.654Z,97611.02
2018-11-07T21:37:26.556Z,97613.19
2018-11-07T21:39:53.257Z,97614.70
2018-11-07T21:42:19.811Z,97612.52
2018-11-07T21:44:46.888Z,97620.58
2018-11-07T21:47:13.623Z,97619.96
2018-11-07T21:49:40.265Z,97617.93
2018-11-07T21:52:07.049Z,97618.50
2018-11-07T21:54:33.856Z,97618.64
2018-11-07T21:57:00.638Z,97623.70
2018-11-07T21:59:27.186Z,97621.70
2018-11-07T22:01:53.947Z,97626.62
2018-11-07T22:04:20.554Z,97626.02
2018-11-07T22:06:47.491Z,97625.66
2018-11-07T22:09:14.428Z,97627.40
2018-11-07T22:11:41.184Z,97625.25
2018-11-07T22:14:07.940Z,97622.63
2018-11-07T22:16:34.837Z,97622.55
2018-11-07T22:19:01.542Z,97624.55
2018-11-07T22:21:28.124Z,97628.04
2018-11-07T22:23:54.665Z,97625.23
2018-11-07T22:26:21.620Z,97634.38
2018-11-07T22:28:48.970Z,97630.05
2018-11-07T22:31:15.696Z,97631.11
2018-11-07T22:33:42.325Z,97625.81
2018-11-07T22:36:08.867Z,97624.27
2018-11-07T22:38:35.460Z,97623.31
2018-11-07T22:41:03.147Z,97626.30
2018-11-07T22:43:29.847Z,97633.30
2018-11-07T22:45:56.539Z,97634.86
2018-11-07T22:48:23.229Z,97637.64
2018-11-07T22:50:49.760Z,97632.47
2018-11-07T22:53:16.547Z,97622.20
2018-11-07T22:55:43.117Z,97626.59
2018-11-07T22:58:10.026Z,97629.58
2018-11-07T23:00:36.642Z,97630.37
2018-11-07T23:03:03.649Z,97634.09
2018-11-07T23:05:30.682Z,97628.00
2018-11-07T23:07:57.318Z,97631.77
2018-11-07T23:10:23.980Z,97626.77
2018-11-07T23:12:50.895Z,97635.10
2018-11-07T23:15:17.995Z,97626.73
2018-11-07T23:17:44.843Z,97620.70
2018-11-07T23:20:11.560Z,97621.78
2018-11-07T23:22:38.696Z,97631.33
2018-11-07T23:25:05.515Z,97632.77
2018-11-07T23:27:32.212Z,97626.16
2018-11-07T23:29:58.871Z,97632.60
2018-11-07T23:32:25.883Z,97632.48
2018-11-07T23:34:52.712Z,97627.12
2018-11-07T23:37:19.718Z,97628.55
2018-11-07T23:39:46.313Z,97631.39
2018-11-07T23:42:13.159Z,97630.73
2018-11-07T23:44:39.642Z,97637.69
2018-11-07T23:47:06.314Z,97635.72
2018-11-07T23:49:33.889Z,97634.98
2018-11-07T23:52:01.150Z,97631.05
2018-11-07T23:54:27.880Z,97628.23
2018-11-07T23:56:54.591Z,97631.72
2018-11-07T23:59:21.302Z,97633.36
